»·PEaware :: N6507W KIZA-KSBP

N6507W :: KIZA-KSBP

FLIGHT INFORMATION

Flight Status: Arrived
Operator: Privately registered:
United States
More flights under this callsign
Pilot: Jukka N. (18040)
Aircraft: Unknown
(KODI)
More flights by this aircraft type
Origin: KIZA Santa Ynez
United States
Destination: KSBP San Luis Co Regl
United States
More flights between these airports :: More routes between these airports
Route:
File this flight plan on PilotEdge
Remarks:
Altitude:
(Current/Filed)
6,500ft
Speed:
(Current/Filed)
150kts
Departed: 10-Mar-19 03:52 AM
Arrived: 10-Mar-19 03:13 AM
Distance/Time
Traveled:
47nm/-1:-39
Distance/Time
To Go:
Arrived

Flight Plot

Page will automatically refresh every two minutes.

Flight plan parsing failed; only flown route is shown


Map Options




Map Legend


Flown Route
Filed Route
Departure Airport
Arrival Airport
Navaid (VOR, NDB)
Fix

Horizontal Profiles

Position Reports

Time Latitude Longitude Heading Altitude Ground
Speed
10-Mar-19 03:32 34.607208 -120.072815 188 675ft 0kts
10-Mar-19 03:33 34.607208 -120.072815 188 675ft 0kts
10-Mar-19 03:34 34.607208 -120.072815 188 675ft 0kts
10-Mar-19 03:35 34.607208 -120.072815 188 675ft 0kts
10-Mar-19 03:36 34.607208 -120.072815 188 675ft 0kts
10-Mar-19 03:37 34.607208 -120.072815 188 675ft 0kts
10-Mar-19 03:38 34.607208 -120.072815 188 675ft 0kts
10-Mar-19 03:39 34.607208 -120.072815 188 675ft 0kts
10-Mar-19 03:40 34.607208 -120.072815 188 675ft 0kts
10-Mar-19 03:41 34.607208 -120.072815 188 675ft 0kts
10-Mar-19 03:42 34.607208 -120.072815 188 675ft 0kts
10-Mar-19 03:43 34.607208 -120.072815 188 675ft 0kts
10-Mar-19 03:44 34.607208 -120.072815 188 675ft 0kts
10-Mar-19 03:45 34.607208 -120.072815 188 675ft 0kts
10-Mar-19 03:46 34.607208 -120.072815 188 675ft 0kts
10-Mar-19 03:47 34.607208 -120.072815 188 675ft 0kts
10-Mar-19 03:48 34.607208 -120.072815 188 675ft 0kts
10-Mar-19 03:48 34.607208 -120.072815 188 675ft 0kts
10-Mar-19 03:50 34.606813 -120.071993 98 675ft 15kts
10-Mar-19 03:50 34.606518 -120.070815 194 675ft 7kts
10-Mar-19 03:51 34.611533 -120.096782 295 1375ft 123kts
10-Mar-19 03:53 34.638919 -120.127063 339 2905ft 132kts
10-Mar-19 03:53 34.671476 -120.136406 332 2900ft 146kts
10-Mar-19 03:54 34.702567 -120.160893 321 3870ft 127kts
10-Mar-19 03:55 34.731089 -120.186238 319 4872ft 130kts
10-Mar-19 03:56 34.762078 -120.213952 317 5882ft 142kts
10-Mar-19 03:57 34.795078 -120.243561 317 6485ft 158kts
10-Mar-19 03:58 34.831178 -120.275917 318 6499ft 161kts
10-Mar-19 03:59 34.867414 -120.308423 319 6498ft 160kts
10-Mar-19 03:00 34.904764 -120.341981 317 6503ft 177kts
10-Mar-19 03:01 34.946364 -120.375016 330 6502ft 181kts
10-Mar-19 03:02 34.992660 -120.399013 331 6500ft 179kts
10-Mar-19 03:03 35.030906 -120.418788 328 6374ft 126kts
10-Mar-19 03:04 35.065311 -120.437076 330 5355ft 144kts
10-Mar-19 03:05 35.102318 -120.456772 333 4173ft 148kts
10-Mar-19 03:06 35.138431 -120.478330 317 3287ft 129kts
10-Mar-19 03:07 35.159043 -120.507416 309 3207ft 104kts
10-Mar-19 03:08 35.178742 -120.538514 307 2278ft 118kts
10-Mar-19 03:09 35.195818 -120.568194 306 1894ft 112kts
10-Mar-19 03:10 35.213703 -120.599555 305 889ft 112kts
10-Mar-19 03:11 35.229231 -120.626853 305 404ft 92kts
10-Mar-19 03:12 35.237566 -120.639809 53 217ft 10kts
10-Mar-19 03:13 35.238332 -120.637551 271 217ft 0kts
10-Mar-19 03:14 35.238332 -120.637551 271 217ft 0kts
10-Mar-19 03:15 35.238332 -120.637551 271 217ft 0kts
10-Mar-19 03:16 35.238332 -120.637551 271 217ft 0kts
10-Mar-19 03:17 35.238332 -120.637551 271 217ft 0kts
10-Mar-19 03:18 35.238332 -120.637551 271 217ft 0kts
10-Mar-19 03:19 35.238332 -120.637551 271 217ft 0kts
10-Mar-19 03:20 35.238332 -120.637551 271 217ft 0kts
10-Mar-19 03:21 35.238332 -120.637551 271 217ft 0kts
10-Mar-19 03:22 35.238331 -120.637499 272 217ft 2kts
10-Mar-19 03:23 35.238423 -120.637351 181 217ft 0kts
10-Mar-19 03:24 35.238037 -120.636976 204 217ft 0kts
10-Mar-19 03:25 35.237753 -120.637124 202 217ft 0kts
10-Mar-19 03:26 35.237470 -120.639362 304 217ft 14kts

Navigation Log

Ident Type
Flight plan parsing failed, navigation log unavailable